My Meet Scores
Ellie Slager, BIG Gymnastics - MyMeetScores.com
Top100 | Top Teams | Upcoming Meets | Completed Meets | Latest | Add Scores | Help| Support | Bookmark and Share

Ellie Slager, BIG Gymnastics
Personal Bests
LevelVault BarsBeamFloorAA
49.6759.725 9.4759.12537.600
59.2509.425 9.4759.40037.050
79.6009.550 9.4509.40037.825
89.3259.500 9.3759.50037.300
99.3500.000 8.8509.32527.275
Meet Scores
Date Meet Team Session Level Division Vault Bars Beam Floor AA
2019-04-11 Region 5 9/10 Championships BIG Gymnastics 11 9 Sr 1 0.000 28 0.000 28 0.000 28 9.325 10 9.325 28
2019-03-15 Illinois State Championship Level 6,9,10 BIG Gymnastics 7 9 Jr D 9.350 10 8.850 9 9.075 19 27.275 22
2019-02-22 Great Western Invitational - Women's BIG Gymnastics 03 9 Cowgirl 8.825 4 0.000 12 8.750 5 9.275 1 26.850 11
2019-02-15 Big ClassicBIG CLASSIC BIG Gymnastics 4B 9 Senior A 9.300 1 0.000 5 8.650 2 9.300 1 27.250 4
2019-02-08 Pikes Peak Cup BIG Gymnastics 4A 9 Sr1 8.950 4 0.000 17 8.100 13 9.050 2 26.100 17
2019-01-25 UGA Invitational BIG Gymnastics A05 9 Sr A 0.000 9T 0.000 9T 8.500 5 8.875 4 17.375 10
2019-01-11 St Jude Benefit Meet BIG Gymnastics 2C 9 Sr A 0.000 9T 0.000 8T 8.525 4 8.875 4 17.400 7
2017-04-21 2017 Region 5 Levels 7 & 8 Championships Balance Institute of Gymnastics 13 8 Jr D 1 9.025 16 9.425 11T 9.375 11 9.400 11T 37.225 9
2017-03-16 2017 Illinois Level 8, 9 & 10 State Meet Balance Institute of Gymnastics All 8 Jr D 9.000 12 9.500 2 9.150 8T 9.225 13 36.875 5
2017-03-03 Nashville Nights Balance Institute of Gymnastics P2 8 JrA 0.000 10T 8.700 9 9.325 2 9.150 6 27.175 10
2017-02-24 Jaycie Phelps Midwest Showdown Balance Institute of Gymnastics 17 8 Level 8 Session 6a Group C 0.000 8.800 6 0.000 7 9.050 6 17.850 6
2017-02-17 Big Classic Balance Institute of Gymnastics A 8 Junior A 8.500 20T 0.000 26T 0.000 25T 0.000 26T 8.500 27
2017-01-27 2017 UGA Invitational Balance Institute of Gymnastics A5 8 Jr B 8.950 5 7.400 11 9.225 7 9.475 1 35.050 8
2017-01-20 2017 Bravo Classic Balance Institute of Gymnastics 03A 8 8-12yrs 9.325 5 9.425 4T 9.250 5 9.300 7T 37.300 3
2016-12-09 St. Nick Invite Balance Institute of Gymnastics 3 8 Junior 8.750 5 9.450 3 9.125 5T 9.500 1 36.825 4
2016-03-18 2016 Illinois Level 8, 9, 10 State Championships Gym Kinetics Gymnastics 06 8 8 Jr B 8.375 19 8.750 21 8.600 25 8.825 27 34.550 21
2015-05-02 2015 Illinois Level 6, 7 State Championships Gym Kinetics Gymnastics 7 Youth-B 9.600 4 9.550 4 9.400 7 9.275 16 37.825 6
2015-03-13 2015 Lucky Invite Gym Kinetics Gymnastics A3 7 Jr.A 9.350 5T 9.500 3 9.400 4T 9.200 7 37.450 4
2015-01-23 King Arthur Invitational Gym Kinetics Gymnastics 2 7 YT 9.250 2 9.150 8 9.250 9 9.375 8 37.025 3
2015-01-09 Legacy Elite Winter Classic 2015 Flipstar Gymnastics Academy 3A 7 Jr A 9.325 4 8.750 7 9.450 2 9.400 2 36.925 4
2014-04-04 2014 Illinois Level 5 and XCEL State Championship Gym Kinetics Gymnastics 5 Ch.B 9.150 15 9.050 13 9.475 3 9.375 7 37.050 8
2014-02-15 BIG Dream Classic 2014 Gym Kinetics Gymnastics 4B 5 Child A 9.050 1 9.200 1 9.225 3 9.250 3 36.725 1
2014-01-31 Circle Of Stars Gym Kinetics Gymnastics 5 5 9 & under 9.250 4 9.250 2 8.625 10 9.275 4 36.400 3
2013-12-19 2013 Hawaiian Pineapple Classic Gym Kinetics Gymnastics A9 5 9 9.175 2 9.225 1T 8.900 4 8.875 5 36.175 3
2013-12-06 Ultimate Wish Classic Gym Kinetics Gymnastics A 5 Youth13 8.200 13 9.425 1 8.900 6 9.050 9 35.575 10
2013-11-08 2013 Illinois Judges Cup Gym Kinetics Gymnastics Y2 5 Sr B 9.250 1 9.175 2 7.750 8 8.800 2T 34.975 2
2013-04-26 2013 Illinois Level 5 and Xcel State Meet Gym Kinetics Gymnastics 5 Child.C 9.000 7 9.400 7 9.150 10 9.250 13 36.800 4
2013-02-22 Midwest Open 2013 Gym Kinetics Gymnastics 9B 5 7 to 8 9.200 2 8.700 2 9.250 1 9.200 3 36.350 2
2013-02-16 BIG Dream Classic 2013 Gym Kinetics Gymnastics 6A 5 Child 9.200 3 8.775 5 9.425 1 9.400 1 36.800 1
2013-01-11 Circle Of Stars Gym Kinetics Gymnastics 5 8 & under 9.000 1 8.850 4 9.175 1 8.925 7 35.950 1
2012-12-13 2012 Hawaiin Pineapple Classic Gym Kinetics Gymnastics 7 5 ages 7-8 8.375 6 9.200 1 7.400 11T 8.750 4 33.725 7
2012-11-30 Ultimate Wish Classic 2012 Gym Kinetics Gymnastics 5 L5 Jr A S11 8.950 2 9.200 1 8.875 9 8.900 7 35.925 2
2012-04-20 2012 Illinois Level 4 State Championships Gym Kinetics Gymnastics 2 4 Child.D 9.325 12 9.725 1 9.475 2 9.075 14 37.600 1
2012-02-25 Midwest Open 2012 Flipstar Gymnastics Academy 7A 4 Lvl 4: 6 to 7 9.675 1 9.625 1 9.000 3 9.125 5 37.425 2
2012-02-10 IGI Chicago Style Gymnastics Gym Kinetics Gymnastics 232 4 8 & Under 9.125 11T 9.325 6 9.100 13T 9.125 14T 36.675 9
2012-01-28 2012 King Arthur Invitational Gym Kinetics Gymnastics 2 4 Jr.B 9.300 2 9.100 3 8.450 13 9.100 3 35.950 5
2012-01-06 2012 St. Jude Invite Flipstar Gymnastics Academy 6B 4 Child B 9.175 1 9.200 1 8.800 1 8.900 4 36.075 1
Get your scores on
a t-shirt, pin, or hoodie

www.lazysuits.com